MMSD/SJD METAR and TAF weather

Enter ICAO airport designator
Station Type Date Time Source
MMSD METAR 2018/12/12 05:44 UTC NOAA

MMSD 120544Z 00000KT 12SM BKN250 19/16 A3004 RMK SLP163 52001 903 8/008


Station Type Date Time Source
MMSD Decoded METAR 2018/12/12 05:44 UTC NOAA

San Jose Del Cabo , Mexico (MMSD) 23-09N 109-42W
Dec 12, 2018 - 12:44 AM EST / 2018.12.12 0544 UTC
Wind: Calm:0
Visibility: 12 mile(s):0
Sky conditions: mostly cloudy
Temperature: 66 F (19 C)
Dew Point: 60 F (16 C)
Relative Humidity: 82%
Pressure (altimeter): 30.04 in. Hg (1017 hPa)
Pressure tendency: 0.00 inches (0.1 hPa) higher than three hours ago
ob: MMSD 120544Z 00000KT 12SM BKN250 19/16 A3004 RMK SLP163 52001 903 8/008
cycle: 5

Station Type Date Time Source
MMSD TAF 2018/12/12 06:21 UTC NOAA

TAF MMSD 120514Z 1206/1306 00000KT P6SM SCT020 BKN250
FM121800 24010KT P6SM SCT030 OVC250
FM130300 15005KT P6SM OVC250


Example: see airport list